Mayetta, Kansas
Current Conditions -  °F | °C
As of 6:53 PM on Tuesday 21 Oct 2014 (Local Time) from KTOP Reporting Station
Clear Clear  
Wind Chill: 65°   Ceiling: Unl
Heat Index: 65°   Visibility: 10mi
Dew Point: 44°   Wind: 5mph
Humidity: 47%   Direction: 100°E
Pressure: 30.04"   Gusts: NA
Location:  39.34°N, 95.72°W
Report Text: KTOP 212353Z 10004KT 10SM CLR 18/07 A3004 RMK AO2 SLP172 T01830067 10256 20183 55003
Loading
Personal Weather Stations






























Interactive Weather Map
Tropical Storm Tracking
New forecast layout! Learn more

10-Day Weather Forecast

Advertisements
Track Severe Weather on mobile